PWSweather.com
Personal Weather Stations
Station Observations
PICKERING
North Yorkshire, PickeringGB

North YorkshirePickeringGB

Lat: 54.2494, Lon: -0.7725

Elevation: 192

Station Type: Oregon Scientific WMR100

http://www.yorkshirewalker.co.uk/weather/

High Low Average
Temperature 62.1°F16.7°C 31.8°F-0.1°C 44.4°F6.9°C
Dew Point 50.0°F10.0°C 24.8°F-4.0°C 36.2°F2.3°C
Winds 4.4 mph 7.1 kmh Calm Calm 1.0 mph SE1.6 kmh SE
Wind Gusts 9.8 mph15.8 kmh -- 3.0 mph4.8 kmh
Humidity 81% 62% 72%
Pressure 30.36 in1028.1 mb 30.04 in1017.3 mb -
Precipitation 0.00 in0.0 mm - -
Hour Temp Dew Point Humidity Winds Wind Gusts Pressure Precip Precip Rate Daily Precip Total
12:00 AM 38.1°F3.4°C 30.2°F-1.0°C 73% 1.9 mph NE3.1 kmh NE 3.1 mph5.0 kmh 30.36 in1028.1 mb 0.00 in0.0 mm 0.00 in0.0 mm 0.00 in0.0 mm
12:05 AM 37.9°F3.3°C 30.2°F-1.0°C 73% 2.6 mph NE4.2 kmh NE 4.0 mph6.4 kmh 30.36 in1028.1 mb 0.00 in0.0 mm 0.00 in0.0 mm 0.00 in0.0 mm
12:10 AM 38.1°F3.4°C 30.2°F-1.0°C 73% 2.4 mph NE3.9 kmh NE 4.0 mph6.4 kmh 30.33 in1027.1 mb 0.00 in0.0 mm 0.00 in0.0 mm 0.00 in0.0 mm
12:15 AM 37.8°F3.2°C 30.2°F-1.0°C 73% 2.3 mph NE3.7 kmh NE 4.0 mph6.4 kmh 30.33 in1027.1 mb 0.00 in0.0 mm 0.00 in0.0 mm 0.00 in0.0 mm
12:20 AM 37.9°F3.3°C 30.2°F-1.0°C 73% 2.2 mph NE3.5 kmh NE 3.6 mph5.8 kmh 30.33 in1027.1 mb 0.00 in0.0 mm 0.00 in0.0 mm 0.00 in0.0 mm
12:25 AM 37.8°F3.2°C 30.2°F-1.0°C 73% 2.5 mph NE4.0 kmh NE 3.6 mph5.8 kmh 30.33 in1027.1 mb 0.00 in0.0 mm 0.00 in0.0 mm 0.00 in0.0 mm
12:30 AM 37.6°F3.1°C 30.2°F-1.0°C 73% 1.8 mph NE2.9 kmh NE 3.6 mph5.8 kmh 30.33 in1027.1 mb 0.00 in0.0 mm 0.00 in0.0 mm 0.00 in0.0 mm
12:35 AM 37.8°F3.2°C 30.2°F-1.0°C 73% 2.0 mph NE3.2 kmh NE 4.0 mph6.4 kmh 30.33 in1027.1 mb 0.00 in0.0 mm 0.00 in0.0 mm 0.00 in0.0 mm
12:40 AM 37.9°F3.3°C 30.2°F-1.0°C 74% 2.8 mph NE4.5 kmh NE 4.0 mph6.4 kmh 30.33 in1027.1 mb 0.00 in0.0 mm 0.00 in0.0 mm 0.00 in0.0 mm
12:45 AM 37.8°F3.2°C 30.2°F-1.0°C 74% 2.1 mph NE3.4 kmh NE 3.8 mph6.1 kmh 30.33 in1027.1 mb 0.00 in0.0 mm 0.00 in0.0 mm 0.00 in0.0 mm
12:50 AM 37.4°F3.0°C 30.2°F-1.0°C 73% 1.3 mph NE2.1 kmh NE 3.6 mph5.8 kmh 30.33 in1027.1 mb 0.00 in0.0 mm 0.00 in0.0 mm 0.00 in0.0 mm
12:55 AM 36.7°F2.6°C 30.2°F-1.0°C 73% 1.1 mph NE1.8 kmh NE 3.6 mph5.8 kmh 30.33 in1027.1 mb 0.00 in0.0 mm 0.00 in0.0 mm 0.00 in0.0 mm
01:00 AM 36.5°F2.5°C 30.2°F-1.0°C 73% 1.0 mph NE1.6 kmh NE 2.7 mph4.3 kmh 30.33 in1027.1 mb 0.00 in0.0 mm 0.00 in0.0 mm 0.00 in0.0 mm
01:05 AM 36.9°F2.7°C 30.2°F-1.0°C 74% 1.4 mph NE2.3 kmh NE 2.9 mph4.7 kmh 30.33 in1027.1 mb 0.00 in0.0 mm 0.00 in0.0 mm 0.00 in0.0 mm
01:10 AM 36.7°F2.6°C 30.2°F-1.0°C 74% 1.4 mph NE2.3 kmh NE 3.6 mph5.8 kmh 30.33 in1027.1 mb 0.00 in0.0 mm 0.00 in0.0 mm 0.00 in0.0 mm
01:15 AM 36.7°F2.6°C 30.2°F-1.0°C 74% 1.5 mph NE2.4 kmh NE 3.6 mph5.8 kmh 30.33 in1027.1 mb 0.00 in0.0 mm 0.00 in0.0 mm 0.00 in0.0 mm
01:20 AM 36.7°F2.6°C 30.2°F-1.0°C 74% 2.3 mph NE3.7 kmh NE 4.3 mph6.9 kmh 30.33 in1027.1 mb 0.00 in0.0 mm 0.00 in0.0 mm 0.00 in0.0 mm
01:25 AM 36.5°F2.5°C 30.2°F-1.0°C 74% 1.9 mph NE3.1 kmh NE 4.3 mph6.9 kmh 30.33 in1027.1 mb 0.00 in0.0 mm 0.00 in0.0 mm 0.00 in0.0 mm
01:30 AM 37.0°F2.8°C 30.2°F-1.0°C 75% 2.1 mph NE3.4 kmh NE 3.8 mph6.1 kmh 30.33 in1027.1 mb 0.00 in0.0 mm 0.00 in0.0 mm 0.00 in0.0 mm
01:35 AM 36.9°F2.7°C 30.2°F-1.0°C 74% 2.6 mph NE4.2 kmh NE 4.0 mph6.4 kmh 30.33 in1027.1 mb 0.00 in0.0 mm 0.00 in0.0 mm 0.00 in0.0 mm
01:40 AM 36.7°F2.6°C 30.2°F-1.0°C 74% 2.3 mph NE3.7 kmh NE 4.0 mph6.4 kmh 30.33 in1027.1 mb 0.00 in0.0 mm 0.00 in0.0 mm 0.00 in0.0 mm
01:45 AM 36.7°F2.6°C 30.2°F-1.0°C 75% 2.4 mph NE3.9 kmh NE 4.0 mph6.4 kmh 30.33 in1027.1 mb 0.00 in0.0 mm 0.00 in0.0 mm 0.00 in0.0 mm
01:50 AM 36.9°F2.7°C 30.2°F-1.0°C 75% 2.5 mph NE4.0 kmh NE 3.1 mph5.0 kmh 30.33 in1027.1 mb 0.00 in0.0 mm 0.00 in0.0 mm 0.00 in0.0 mm
01:55 AM 36.5°F2.5°C 30.2°F-1.0°C 75% 1.5 mph NE2.4 kmh NE 3.1 mph5.0 kmh 30.30 in1026.1 mb 0.00 in0.0 mm 0.00 in0.0 mm 0.00 in0.0 mm
02:00 AM 36.0°F2.2°C 28.4°F-2.0°C 74% 0.9 mph NE1.4 kmh NE 2.2 mph3.5 kmh 30.30 in1026.1 mb 0.00 in0.0 mm 0.00 in0.0 mm 0.00 in0.0 mm
02:05 AM 36.0°F2.2°C 28.4°F-2.0°C 74% 1.8 mph NE2.9 kmh NE 2.7 mph4.3 kmh 30.30 in1026.1 mb 0.00 in0.0 mm 0.00 in0.0 mm 0.00 in0.0 mm
02:10 AM 36.0°F2.2°C 30.2°F-1.0°C 75% 2.0 mph NE3.2 kmh NE 2.7 mph4.3 kmh 30.30 in1026.1 mb 0.00 in0.0 mm 0.00 in0.0 mm 0.00 in0.0 mm
02:15 AM 36.0°F2.2°C 30.2°F-1.0°C 75% 2.2 mph NE3.5 kmh NE 2.9 mph4.7 kmh 30.30 in1026.1 mb 0.00 in0.0 mm 0.00 in0.0 mm 0.00 in0.0 mm
02:20 AM 36.0°F2.2°C 30.2°F-1.0°C 75% 2.0 mph ENE3.2 kmh ENE 2.9 mph4.7 kmh 30.30 in1026.1 mb 0.00 in0.0 mm 0.00 in0.0 mm 0.00 in0.0 mm
02:25 AM 36.0°F2.2°C 30.2°F-1.0°C 75% 1.0 mph ENE1.6 kmh ENE 1.6 mph2.6 kmh 30.30 in1026.1 mb 0.00 in0.0 mm 0.00 in0.0 mm 0.00 in0.0 mm
02:30 AM 35.4°F1.9°C 28.4°F-2.0°C 75% 0.5 mph NE0.8 kmh NE 1.3 mph2.1 kmh 30.30 in1026.1 mb 0.00 in0.0 mm 0.00 in0.0 mm 0.00 in0.0 mm
02:35 AM 35.2°F1.8°C 28.4°F-2.0°C 75% 0.4 mph NE0.6 kmh NE 1.3 mph2.1 kmh 30.30 in1026.1 mb 0.00 in0.0 mm 0.00 in0.0 mm 0.00 in0.0 mm
02:40 AM 35.1°F1.7°C 28.4°F-2.0°C 75% 1.1 mph NE1.8 kmh NE 2.9 mph4.7 kmh 30.30 in1026.1 mb 0.00 in0.0 mm 0.00 in0.0 mm 0.00 in0.0 mm
02:45 AM 35.1°F1.7°C 28.4°F-2.0°C 75% 1.4 mph NE2.3 kmh NE 2.9 mph4.7 kmh 30.30 in1026.1 mb 0.00 in0.0 mm 0.00 in0.0 mm 0.00 in0.0 mm
02:50 AM 35.1°F1.7°C 28.4°F-2.0°C 75% 1.4 mph NE2.3 kmh NE 2.5 mph4.0 kmh 30.30 in1026.1 mb 0.00 in0.0 mm 0.00 in0.0 mm 0.00 in0.0 mm
02:55 AM 35.4°F1.9°C 28.4°F-2.0°C 75% 1.7 mph NE2.7 kmh NE 2.5 mph4.0 kmh 30.27 in1025.1 mb 0.00 in0.0 mm 0.00 in0.0 mm 0.00 in0.0 mm
03:00 AM 35.4°F1.9°C 28.4°F-2.0°C 76% 1.8 mph NE2.9 kmh NE 2.7 mph4.3 kmh 30.27 in1025.1 mb 0.00 in0.0 mm 0.00 in0.0 mm 0.00 in0.0 mm
03:05 AM 35.2°F1.8°C 28.4°F-2.0°C 76% 1.2 mph NE1.9 kmh NE 2.7 mph4.3 kmh 30.27 in1025.1 mb 0.00 in0.0 mm 0.00 in0.0 mm 0.00 in0.0 mm
03:10 AM 35.2°F1.8°C 28.4°F-2.0°C 76% 1.3 mph NNE2.1 kmh NNE 3.1 mph5.0 kmh 30.27 in1025.1 mb 0.00 in0.0 mm 0.00 in0.0 mm 0.00 in0.0 mm
03:15 AM 34.9°F1.6°C 28.4°F-2.0°C 76% 1.9 mph NE3.1 kmh NE 3.1 mph5.0 kmh 30.27 in1025.1 mb 0.00 in0.0 mm 0.00 in0.0 mm 0.00 in0.0 mm
03:20 AM 35.1°F1.7°C 28.4°F-2.0°C 76% 2.1 mph NE3.4 kmh NE 3.1 mph5.0 kmh 30.27 in1025.1 mb 0.00 in0.0 mm 0.00 in0.0 mm 0.00 in0.0 mm
03:25 AM 35.1°F1.7°C 28.4°F-2.0°C 76% 1.8 mph NE2.9 kmh NE 3.1 mph5.0 kmh 30.27 in1025.1 mb 0.00 in0.0 mm 0.00 in0.0 mm 0.00 in0.0 mm
03:30 AM 34.9°F1.6°C 28.4°F-2.0°C 76% 1.1 mph NE1.8 kmh NE 2.5 mph4.0 kmh 30.27 in1025.1 mb 0.00 in0.0 mm 0.00 in0.0 mm 0.00 in0.0 mm
03:35 AM 34.7°F1.5°C 28.4°F-2.0°C 76% 0.9 mph NE1.4 kmh NE 2.0 mph3.2 kmh 30.27 in1025.1 mb 0.00 in0.0 mm 0.00 in0.0 mm 0.00 in0.0 mm
03:40 AM 34.9°F1.6°C 28.4°F-2.0°C 76% 1.3 mph NE2.1 kmh NE 2.2 mph3.5 kmh 30.27 in1025.1 mb 0.00 in0.0 mm 0.00 in0.0 mm 0.00 in0.0 mm
03:45 AM 34.7°F1.5°C 28.4°F-2.0°C 76% 1.3 mph NE2.1 kmh NE 2.2 mph3.5 kmh 30.27 in1025.1 mb 0.00 in0.0 mm 0.00 in0.0 mm 0.00 in0.0 mm
03:50 AM 34.5°F1.4°C 28.4°F-2.0°C 76% 1.9 mph NE3.1 kmh NE 3.4 mph5.5 kmh 30.27 in1025.1 mb 0.00 in0.0 mm 0.00 in0.0 mm 0.00 in0.0 mm
03:55 AM 34.7°F1.5°C 28.4°F-2.0°C 76% 2.1 mph NE3.4 kmh NE 3.4 mph5.5 kmh 30.27 in1025.1 mb 0.00 in0.0 mm 0.00 in0.0 mm 0.00 in0.0 mm
04:00 AM 34.3°F1.3°C 28.4°F-2.0°C 76% 1.1 mph NE1.8 kmh NE 2.5 mph4.0 kmh 30.27 in1025.1 mb 0.00 in0.0 mm 0.00 in0.0 mm 0.00 in0.0 mm
04:05 AM 34.2°F1.2°C 28.4°F-2.0°C 76% 0.8 mph NNE1.3 kmh NNE 2.2 mph3.5 kmh 30.27 in1025.1 mb 0.00 in0.0 mm 0.00 in0.0 mm 0.00 in0.0 mm
04:10 AM 34.3°F1.3°C 28.4°F-2.0°C 77% 1.1 mph N1.8 kmh N 2.2 mph3.5 kmh 30.27 in1025.1 mb 0.00 in0.0 mm 0.00 in0.0 mm 0.00 in0.0 mm
04:15 AM 34.7°F1.5°C 28.4°F-2.0°C 77% 1.6 mph NNE2.6 kmh NNE 2.7 mph4.3 kmh 30.27 in1025.1 mb 0.00 in0.0 mm 0.00 in0.0 mm 0.00 in0.0 mm
04:20 AM 34.3°F1.3°C 28.4°F-2.0°C 77% 1.3 mph NE2.1 kmh NE 2.7 mph4.3 kmh 30.27 in1025.1 mb 0.00 in0.0 mm 0.00 in0.0 mm 0.00 in0.0 mm
04:25 AM 34.3°F1.3°C 28.4°F-2.0°C 77% 0.7 mph NE1.1 kmh NE 1.3 mph2.1 kmh 30.24 in1024.0 mb 0.00 in0.0 mm 0.00 in0.0 mm 0.00 in0.0 mm
04:30 AM 34.5°F1.4°C 28.4°F-2.0°C 77% 1.0 mph NE1.6 kmh NE 2.7 mph4.3 kmh 30.24 in1024.0 mb 0.00 in0.0 mm 0.00 in0.0 mm 0.00 in0.0 mm
04:35 AM 34.5°F1.4°C 28.4°F-2.0°C 77% 1.1 mph NE1.8 kmh NE 2.7 mph4.3 kmh 30.24 in1024.0 mb 0.00 in0.0 mm 0.00 in0.0 mm 0.00 in0.0 mm
04:40 AM 34.0°F1.1°C 28.4°F-2.0°C 77% 0.8 mph NE1.3 kmh NE 2.0 mph3.2 kmh 30.24 in1024.0 mb 0.00 in0.0 mm 0.00 in0.0 mm 0.00 in0.0 mm
04:45 AM 33.8°F1.0°C 28.4°F-2.0°C 77% 1.0 mph NE1.6 kmh NE 2.0 mph3.2 kmh 30.24 in1024.0 mb 0.00 in0.0 mm 0.00 in0.0 mm 0.00 in0.0 mm
04:50 AM 33.8°F1.0°C 28.4°F-2.0°C 77% 1.3 mph NE2.1 kmh NE 2.7 mph4.3 kmh 30.24 in1024.0 mb 0.00 in0.0 mm 0.00 in0.0 mm 0.00 in0.0 mm
04:55 AM 34.2°F1.2°C 28.4°F-2.0°C 77% 2.0 mph NE3.2 kmh NE 2.9 mph4.7 kmh 30.24 in1024.0 mb 0.00 in0.0 mm 0.00 in0.0 mm 0.00 in0.0 mm
05:00 AM 34.2°F1.2°C 28.4°F-2.0°C 77% 2.2 mph NE3.5 kmh NE 2.9 mph4.7 kmh 30.24 in1024.0 mb 0.00 in0.0 mm 0.00 in0.0 mm 0.00 in0.0 mm
05:05 AM 34.0°F1.1°C 28.4°F-2.0°C 77% 1.7 mph NE2.7 kmh NE 2.9 mph4.7 kmh 30.24 in1024.0 mb 0.00 in0.0 mm 0.00 in0.0 mm 0.00 in0.0 mm
05:10 AM 33.6°F0.9°C 28.4°F-2.0°C 77% 1.1 mph NE1.8 kmh NE 2.2 mph3.5 kmh 30.24 in1024.0 mb 0.00 in0.0 mm 0.00 in0.0 mm 0.00 in0.0 mm
05:15 AM 33.3°F0.7°C 26.6°F-3.0°C 77% 0.9 mph NE1.4 kmh NE 2.0 mph3.2 kmh 30.24 in1024.0 mb 0.00 in0.0 mm 0.00 in0.0 mm 0.00 in0.0 mm
05:20 AM 33.3°F0.7°C 26.6°F-3.0°C 77% 0.5 mph NE0.8 kmh NE 2.0 mph3.2 kmh 30.24 in1024.0 mb 0.00 in0.0 mm 0.00 in0.0 mm 0.00 in0.0 mm
05:25 AM 33.3°F0.7°C 26.6°F-3.0°C 77% 1.2 mph NE1.9 kmh NE 2.9 mph4.7 kmh 30.24 in1024.0 mb 0.00 in0.0 mm 0.00 in0.0 mm 0.00 in0.0 mm
05:30 AM 33.1°F0.6°C 26.6°F-3.0°C 77% 1.4 mph NE2.3 kmh NE 2.9 mph4.7 kmh 30.24 in1024.0 mb 0.00 in0.0 mm 0.00 in0.0 mm 0.00 in0.0 mm
05:35 AM 33.1°F0.6°C 26.6°F-3.0°C 77% 1.2 mph NE1.9 kmh NE 2.7 mph4.3 kmh 30.24 in1024.0 mb 0.00 in0.0 mm 0.00 in0.0 mm 0.00 in0.0 mm
05:40 AM 32.7°F0.4°C 26.6°F-3.0°C 77% 1.2 mph NE1.9 kmh NE 2.7 mph4.3 kmh 30.24 in1024.0 mb 0.00 in0.0 mm 0.00 in0.0 mm 0.00 in0.0 mm
05:45 AM 33.1°F0.6°C 26.6°F-3.0°C 77% 1.0 mph NE1.6 kmh NE 2.5 mph4.0 kmh 30.24 in1024.0 mb 0.00 in0.0 mm 0.00 in0.0 mm 0.00 in0.0 mm
05:50 AM 32.5°F0.3°C 26.6°F-3.0°C 77% 1.0 mph NE1.6 kmh NE 2.5 mph4.0 kmh 30.24 in1024.0 mb 0.00 in0.0 mm 0.00 in0.0 mm 0.00 in0.0 mm
05:55 AM 32.2°F0.1°C 26.6°F-3.0°C 77% 0.7 mph NE1.1 kmh NE 1.3 mph2.1 kmh 30.24 in1024.0 mb 0.00 in0.0 mm 0.00 in0.0 mm 0.00 in0.0 mm
06:00 AM 32.0°F0.0°C 24.8°F-4.0°C 77% 1.1 mph NE1.8 kmh NE 2.0 mph3.2 kmh 30.24 in1024.0 mb 0.00 in0.0 mm 0.00 in0.0 mm 0.00 in0.0 mm
06:05 AM 32.4°F0.2°C 26.6°F-3.0°C 77% 1.6 mph NE2.6 kmh NE 2.5 mph4.0 kmh 30.24 in1024.0 mb 0.00 in0.0 mm 0.00 in0.0 mm 0.00 in0.0 mm
06:10 AM 32.9°F0.5°C 26.6°F-3.0°C 78% 1.7 mph NE2.7 kmh NE 2.5 mph4.0 kmh 30.21 in1023.0 mb 0.00 in0.0 mm 0.00 in0.0 mm 0.00 in0.0 mm
06:15 AM 32.4°F0.2°C 26.6°F-3.0°C 77% 1.2 mph NE1.9 kmh NE 2.0 mph3.2 kmh 30.21 in1023.0 mb 0.00 in0.0 mm 0.00 in0.0 mm 0.00 in0.0 mm
06:20 AM 32.2°F0.1°C 26.6°F-3.0°C 77% 1.3 mph NE2.1 kmh NE 2.9 mph4.7 kmh 30.21 in1023.0 mb 0.00 in0.0 mm 0.00 in0.0 mm 0.00 in0.0 mm
06:25 AM 32.2°F0.1°C 26.6°F-3.0°C 77% 1.7 mph NE2.7 kmh NE 2.9 mph4.7 kmh 30.21 in1023.0 mb 0.00 in0.0 mm 0.00 in0.0 mm 0.00 in0.0 mm
06:30 AM 32.4°F0.2°C 26.6°F-3.0°C 78% 1.8 mph NE2.9 kmh NE 2.2 mph3.5 kmh 30.21 in1023.0 mb 0.00 in0.0 mm 0.00 in0.0 mm 0.00 in0.0 mm
06:35 AM 32.0°F0.0°C 24.8°F-4.0°C 78% 1.6 mph NE2.6 kmh NE 2.2 mph3.5 kmh 30.21 in1023.0 mb 0.00 in0.0 mm 0.00 in0.0 mm 0.00 in0.0 mm
06:40 AM 32.4°F0.2°C 26.6°F-3.0°C 78% 1.7 mph NE2.7 kmh NE 2.5 mph4.0 kmh 30.21 in1023.0 mb 0.00 in0.0 mm 0.00 in0.0 mm 0.00 in0.0 mm
06:45 AM 32.4°F0.2°C 26.6°F-3.0°C 78% 1.5 mph NE2.4 kmh NE 2.5 mph4.0 kmh 30.21 in1023.0 mb 0.00 in0.0 mm 0.00 in0.0 mm 0.00 in0.0 mm
06:50 AM 32.2°F0.1°C 26.6°F-3.0°C 78% 1.0 mph NE1.6 kmh NE 2.2 mph3.5 kmh 30.21 in1023.0 mb 0.00 in0.0 mm 0.00 in0.0 mm 0.00 in0.0 mm
06:55 AM 32.2°F0.1°C 26.6°F-3.0°C 78% 1.4 mph NE2.3 kmh NE 2.7 mph4.3 kmh 30.21 in1023.0 mb 0.00 in0.0 mm 0.00 in0.0 mm 0.00 in0.0 mm
07:00 AM 32.0°F0.0°C 24.8°F-4.0°C 78% 1.2 mph NE1.9 kmh NE 2.7 mph4.3 kmh 30.21 in1023.0 mb 0.00 in0.0 mm 0.00 in0.0 mm 0.00 in0.0 mm
07:05 AM 31.8°F-0.1°C 24.8°F-4.0°C 78% 0.4 mph NE0.6 kmh NE 1.1 mph1.8 kmh 30.21 in1023.0 mb 0.00 in0.0 mm 0.00 in0.0 mm 0.00 in0.0 mm
07:10 AM 31.8°F-0.1°C 24.8°F-4.0°C 78% 0.2 mph NE0.3 kmh NE 1.3 mph2.1 kmh 30.21 in1023.0 mb 0.00 in0.0 mm 0.00 in0.0 mm 0.00 in0.0 mm
07:15 AM 31.8°F-0.1°C 24.8°F-4.0°C 78% 0.3 mph NE0.5 kmh NE 2.0 mph3.2 kmh 30.21 in1023.0 mb 0.00 in0.0 mm 0.00 in0.0 mm 0.00 in0.0 mm
07:20 AM 31.8°F-0.1°C 24.8°F-4.0°C 78% 1.0 mph NE1.6 kmh NE 3.1 mph5.0 kmh 30.21 in1023.0 mb 0.00 in0.0 mm 0.00 in0.0 mm 0.00 in0.0 mm
07:25 AM 32.0°F0.0°C 24.8°F-4.0°C 78% 1.5 mph NE2.4 kmh NE 3.1 mph5.0 kmh 30.21 in1023.0 mb 0.00 in0.0 mm 0.00 in0.0 mm 0.00 in0.0 mm
07:30 AM 32.0°F0.0°C 24.8°F-4.0°C 78% 1.3 mph NE2.1 kmh NE 2.9 mph4.7 kmh 30.21 in1023.0 mb 0.00 in0.0 mm 0.00 in0.0 mm 0.00 in0.0 mm
07:35 AM 32.2°F0.1°C 26.6°F-3.0°C 78% 1.7 mph NE2.7 kmh NE 2.7 mph4.3 kmh 30.21 in1023.0 mb 0.00 in0.0 mm 0.00 in0.0 mm 0.00 in0.0 mm
07:40 AM 32.0°F0.0°C 24.8°F-4.0°C 78% 1.5 mph NE2.4 kmh NE 2.7 mph4.3 kmh 30.21 in1023.0 mb 0.00 in0.0 mm 0.00 in0.0 mm 0.00 in0.0 mm
07:45 AM 32.0°F0.0°C 24.8°F-4.0°C 78% 0.6 mph NE1.0 kmh NE 2.5 mph4.0 kmh 30.21 in1023.0 mb 0.00 in0.0 mm 0.00 in0.0 mm 0.00 in0.0 mm
07:50 AM 32.4°F0.2°C 26.6°F-3.0°C 78% 0.9 mph NE1.4 kmh NE 2.5 mph4.0 kmh 30.21 in1023.0 mb 0.00 in0.0 mm 0.00 in0.0 mm 0.00 in0.0 mm
07:55 AM 32.2°F0.1°C 26.6°F-3.0°C 78% 0.7 mph NE1.1 kmh NE 2.5 mph4.0 kmh 30.21 in1023.0 mb 0.00 in0.0 mm 0.00 in0.0 mm 0.00 in0.0 mm
08:00 AM 32.4°F0.2°C 26.6°F-3.0°C 78% 0.3 mph NE0.5 kmh NE 1.1 mph1.8 kmh 30.21 in1023.0 mb 0.00 in0.0 mm 0.00 in0.0 mm 0.00 in0.0 mm
08:05 AM 32.4°F0.2°C 26.6°F-3.0°C 78% 0.4 mph NE0.6 kmh NE 1.1 mph1.8 kmh 30.21 in1023.0 mb 0.00 in0.0 mm 0.00 in0.0 mm 0.00 in0.0 mm
08:10 AM 32.5°F0.3°C 26.6°F-3.0°C 79% 0.2 mph NE0.3 kmh NE 1.1 mph1.8 kmh 30.21 in1023.0 mb 0.00 in0.0 mm 0.00 in0.0 mm 0.00 in0.0 mm
08:15 AM 32.9°F0.5°C 28.4°F-2.0°C 79% 0.2 mph NE0.3 kmh NE 1.1 mph1.8 kmh 30.21 in1023.0 mb 0.00 in0.0 mm 0.00 in0.0 mm 0.00 in0.0 mm
08:20 AM 33.3°F0.7°C 28.4°F-2.0°C 79% 0.7 mph NE1.1 kmh NE 1.3 mph2.1 kmh 30.21 in1023.0 mb 0.00 in0.0 mm 0.00 in0.0 mm 0.00 in0.0 mm
08:25 AM 33.4°F0.8°C 28.4°F-2.0°C 79% 0.7 mph NE1.1 kmh NE 1.3 mph2.1 kmh 30.21 in1023.0 mb 0.00 in0.0 mm 0.00 in0.0 mm 0.00 in0.0 mm
08:30 AM 33.8°F1.0°C 28.4°F-2.0°C 79% 0.6 mph NE1.0 kmh NE 1.1 mph1.8 kmh 30.21 in1023.0 mb 0.00 in0.0 mm 0.00 in0.0 mm 0.00 in0.0 mm
08:35 AM 34.5°F1.4°C 30.2°F-1.0°C 80% 0.6 mph NE1.0 kmh NE 1.1 mph1.8 kmh 30.21 in1023.0 mb 0.00 in0.0 mm 0.00 in0.0 mm 0.00 in0.0 mm
08:40 AM 34.9°F1.6°C 30.2°F-1.0°C 80% 0.4 mph NE0.6 kmh NE 0.9 mph1.4 kmh 30.21 in1023.0 mb 0.00 in0.0 mm 0.00 in0.0 mm 0.00 in0.0 mm
08:45 AM 35.6°F2.0°C 30.2°F-1.0°C 80% 0.4 mph NE0.6 kmh NE 0.9 mph1.4 kmh 30.21 in1023.0 mb 0.00 in0.0 mm 0.00 in0.0 mm 0.00 in0.0 mm
08:50 AM 36.3°F2.4°C 32.0°F0.0°C 80% 0.6 mph ENE1.0 kmh ENE 1.1 mph1.8 kmh 30.21 in1023.0 mb 0.00 in0.0 mm 0.00 in0.0 mm 0.00 in0.0 mm
08:55 AM 37.0°F2.8°C 32.0°F0.0°C 81% 0.9 mph E1.4 kmh E 1.1 mph1.8 kmh 30.21 in1023.0 mb 0.00 in0.0 mm 0.00 in0.0 mm 0.00 in0.0 mm
09:00 AM 37.0°F2.8°C 32.0°F0.0°C 81% 1.0 mph ENE1.6 kmh ENE 1.1 mph1.8 kmh 30.21 in1023.0 mb 0.00 in0.0 mm 0.00 in0.0 mm 0.00 in0.0 mm
09:05 AM 37.4°F3.0°C 32.0°F0.0°C 81% 1.0 mph NE1.6 kmh NE 1.6 mph2.6 kmh 30.21 in1023.0 mb 0.00 in0.0 mm 0.00 in0.0 mm 0.00 in0.0 mm
09:10 AM 37.9°F3.3°C 33.8°F1.0°C 81% 0.6 mph NE1.0 kmh NE 1.6 mph2.6 kmh 30.21 in1023.0 mb 0.00 in0.0 mm 0.00 in0.0 mm 0.00 in0.0 mm
09:15 AM 38.3°F3.5°C 33.8°F1.0°C 81% 0.2 mph E0.3 kmh E 0.9 mph1.4 kmh 30.21 in1023.0 mb 0.00 in0.0 mm 0.00 in0.0 mm 0.00 in0.0 mm
09:20 AM 38.8°F3.8°C 33.8°F1.0°C 81% 0.4 mph N0.6 kmh N 1.6 mph2.6 kmh 30.21 in1023.0 mb 0.00 in0.0 mm 0.00 in0.0 mm 0.00 in0.0 mm
09:25 AM 39.4°F4.1°C 33.8°F1.0°C 81% 0.8 mph NW1.3 kmh NW 1.6 mph2.6 kmh 30.21 in1023.0 mb 0.00 in0.0 mm 0.00 in0.0 mm 0.00 in0.0 mm
09:30 AM 39.6°F4.2°C 33.8°F1.0°C 81% 0.6 mph NW1.0 kmh NW 1.6 mph2.6 kmh 30.21 in1023.0 mb 0.00 in0.0 mm 0.00 in0.0 mm 0.00 in0.0 mm
09:35 AM 39.7°F4.3°C 33.8°F1.0°C 80% 0.2 mph WSW0.3 kmh WSW 1.1 mph1.8 kmh 30.21 in1023.0 mb 0.00 in0.0 mm 0.00 in0.0 mm 0.00 in0.0 mm
09:40 AM 40.1°F4.5°C 35.6°F2.0°C 80% 0.2 mph WSW0.3 kmh WSW 1.1 mph1.8 kmh 30.21 in1023.0 mb 0.00 in0.0 mm 0.00 in0.0 mm 0.00 in0.0 mm
09:45 AM 40.5°F4.7°C 35.6°F2.0°C 80% 0.1 mph SSW0.2 kmh SSW 0.9 mph1.4 kmh 30.21 in1023.0 mb 0.00 in0.0 mm 0.00 in0.0 mm 0.00 in0.0 mm
09:50 AM 40.8°F4.9°C 35.6°F2.0°C 79% 0.4 mph SW0.6 kmh SW 2.0 mph3.2 kmh 30.21 in1023.0 mb 0.00 in0.0 mm 0.00 in0.0 mm 0.00 in0.0 mm
09:55 AM 41.2°F5.1°C 35.6°F2.0°C 79% 0.6 mph WSW1.0 kmh WSW 2.0 mph3.2 kmh 30.21 in1023.0 mb 0.00 in0.0 mm 0.00 in0.0 mm 0.00 in0.0 mm
10:00 AM 41.4°F5.2°C 35.6°F2.0°C 79% 0.8 mph WSW1.3 kmh WSW 1.3 mph2.1 kmh 30.21 in1023.0 mb 0.00 in0.0 mm 0.00 in0.0 mm 0.00 in0.0 mm
10:05 AM 41.5°F5.3°C 35.6°F2.0°C 79% 0.7 mph WSW1.1 kmh WSW 1.3 mph2.1 kmh 30.21 in1023.0 mb 0.00 in0.0 mm 0.00 in0.0 mm 0.00 in0.0 mm
10:10 AM 42.1°F5.6°C 37.4°F3.0°C 79% 0.6 mph S1.0 kmh S 2.5 mph4.0 kmh 30.21 in1023.0 mb 0.00 in0.0 mm 0.00 in0.0 mm 0.00 in0.0 mm
10:15 AM 42.6°F5.9°C 37.4°F3.0°C 79% 1.3 mph S2.1 kmh S 3.6 mph5.8 kmh 30.21 in1023.0 mb 0.00 in0.0 mm 0.00 in0.0 mm 0.00 in0.0 mm
10:20 AM 43.0°F6.1°C 37.4°F3.0°C 78% 1.3 mph SSW2.1 kmh SSW 3.6 mph5.8 kmh 30.21 in1023.0 mb 0.00 in0.0 mm 0.00 in0.0 mm 0.00 in0.0 mm
10:25 AM 43.5°F6.4°C 37.4°F3.0°C 78% 0.8 mph SSW1.3 kmh SSW 2.0 mph3.2 kmh 30.21 in1023.0 mb 0.00 in0.0 mm 0.00 in0.0 mm 0.00 in0.0 mm
10:30 AM 43.7°F6.5°C 37.4°F3.0°C 78% 1.0 mph SSW1.6 kmh SSW 2.9 mph4.7 kmh 30.21 in1023.0 mb 0.00 in0.0 mm 0.00 in0.0 mm 0.00 in0.0 mm
10:35 AM 45.0°F7.2°C 39.2°F4.0°C 78% 0.9 mph SSW1.4 kmh SSW 2.9 mph4.7 kmh 30.21 in1023.0 mb 0.00 in0.0 mm 0.00 in0.0 mm 0.00 in0.0 mm
10:40 AM 46.6°F8.1°C 41.0°F5.0°C 77% 1.2 mph S1.9 kmh S 4.0 mph6.4 kmh 30.21 in1023.0 mb 0.00 in0.0 mm 0.00 in0.0 mm 0.00 in0.0 mm
10:45 AM 48.0°F8.9°C 41.0°F5.0°C 76% 1.3 mph S2.1 kmh S 4.0 mph6.4 kmh 30.21 in1023.0 mb 0.00 in0.0 mm 0.00 in0.0 mm 0.00 in0.0 mm
10:50 AM 49.6°F9.8°C 42.8°F6.0°C 75% 1.2 mph SW1.9 kmh SW 2.9 mph4.7 kmh 30.21 in1023.0 mb 0.00 in0.0 mm 0.00 in0.0 mm 0.00 in0.0 mm
10:55 AM 50.7°F10.4°C 42.8°F6.0°C 74% 1.7 mph WSW2.7 kmh WSW 2.9 mph4.7 kmh 30.18 in1022.0 mb 0.00 in0.0 mm 0.00 in0.0 mm 0.00 in0.0 mm
11:00 AM 51.6°F10.9°C 42.8°F6.0°C 73% 2.1 mph WSW3.4 kmh WSW 3.1 mph5.0 kmh 30.18 in1022.0 mb 0.00 in0.0 mm 0.00 in0.0 mm 0.00 in0.0 mm
11:05 AM 52.5°F11.4°C 44.6°F7.0°C 72% 2.6 mph WSW4.2 kmh WSW 3.4 mph5.5 kmh 30.18 in1022.0 mb 0.00 in0.0 mm 0.00 in0.0 mm 0.00 in0.0 mm
11:10 AM 53.6°F12.0°C 44.6°F7.0°C 71% 2.4 mph WSW3.9 kmh WSW 3.4 mph5.5 kmh 30.18 in1022.0 mb 0.00 in0.0 mm 0.00 in0.0 mm 0.00 in0.0 mm
11:15 AM 54.3°F12.4°C 44.6°F7.0°C 69% 2.4 mph WSW3.9 kmh WSW 3.6 mph5.8 kmh 30.18 in1022.0 mb 0.00 in0.0 mm 0.00 in0.0 mm 0.00 in0.0 mm
11:20 AM 54.9°F12.7°C 44.6°F7.0°C 69% 2.6 mph SW4.2 kmh SW 3.6 mph5.8 kmh 30.18 in1022.0 mb 0.00 in0.0 mm 0.00 in0.0 mm 0.00 in0.0 mm
11:25 AM 55.4°F13.0°C 46.4°F8.0°C 69% 2.4 mph SW3.9 kmh SW 3.6 mph5.8 kmh 30.18 in1022.0 mb 0.00 in0.0 mm 0.00 in0.0 mm 0.00 in0.0 mm
11:30 AM 55.8°F13.2°C 46.4°F8.0°C 68% 2.1 mph WSW3.4 kmh WSW 3.4 mph5.5 kmh 30.18 in1022.0 mb 0.00 in0.0 mm 0.00 in0.0 mm 0.00 in0.0 mm
11:35 AM 56.1°F13.4°C 46.4°F8.0°C 68% 2.5 mph WSW4.0 kmh WSW 5.6 mph9.0 kmh 30.18 in1022.0 mb 0.00 in0.0 mm 0.00 in0.0 mm 0.00 in0.0 mm
11:40 AM 56.1°F13.4°C 46.4°F8.0°C 67% 3.8 mph WSW6.1 kmh WSW 6.3 mph10.1 kmh 30.18 in1022.0 mb 0.00 in0.0 mm 0.00 in0.0 mm 0.00 in0.0 mm
11:45 AM 56.8°F13.8°C 46.4°F8.0°C 67% 3.9 mph WSW6.3 kmh WSW 6.3 mph10.1 kmh 30.18 in1022.0 mb 0.00 in0.0 mm 0.00 in0.0 mm 0.00 in0.0 mm
11:50 AM 57.2°F14.0°C 46.4°F8.0°C 67% 2.8 mph WSW4.5 kmh WSW 4.7 mph7.6 kmh 30.18 in1022.0 mb 0.00 in0.0 mm 0.00 in0.0 mm 0.00 in0.0 mm
11:55 AM 57.0°F13.9°C 46.4°F8.0°C 66% 2.8 mph WSW4.5 kmh WSW 3.8 mph6.1 kmh 30.18 in1022.0 mb 0.00 in0.0 mm 0.00 in0.0 mm 0.00 in0.0 mm
12:00 PM 57.7°F14.3°C 46.4°F8.0°C 66% 3.0 mph SW4.8 kmh SW 4.0 mph6.4 kmh 30.18 in1022.0 mb 0.00 in0.0 mm 0.00 in0.0 mm 0.00 in0.0 mm
12:05 PM 58.3°F14.6°C 48.2°F9.0°C 66% 2.6 mph SW4.2 kmh SW 4.0 mph6.4 kmh 30.18 in1022.0 mb 0.00 in0.0 mm 0.00 in0.0 mm 0.00 in0.0 mm
12:10 PM 57.7°F14.3°C 46.4°F8.0°C 65% 2.1 mph SW3.4 kmh SW 3.4 mph5.5 kmh 30.18 in1022.0 mb 0.00 in0.0 mm 0.00 in0.0 mm 0.00 in0.0 mm
12:15 PM 57.6°F14.2°C 46.4°F8.0°C 66% 2.2 mph WSW3.5 kmh WSW 3.4 mph5.5 kmh 30.18 in1022.0 mb 0.00 in0.0 mm 0.00 in0.0 mm 0.00 in0.0 mm
12:20 PM 58.5°F14.7°C 48.2°F9.0°C 65% 2.4 mph WSW3.9 kmh WSW 4.0 mph6.4 kmh 30.18 in1022.0 mb 0.00 in0.0 mm 0.00 in0.0 mm 0.00 in0.0 mm
12:25 PM 59.2°F15.1°C 48.2°F9.0°C 65% 1.7 mph WSW2.7 kmh WSW 4.0 mph6.4 kmh 30.18 in1022.0 mb 0.00 in0.0 mm 0.00 in0.0 mm 0.00 in0.0 mm
12:30 PM 59.7°F15.4°C 48.2°F9.0°C 64% 0.5 mph SSW0.8 kmh SSW 1.3 mph2.1 kmh 30.18 in1022.0 mb 0.00 in0.0 mm 0.00 in0.0 mm 0.00 in0.0 mm
12:35 PM 60.1°F15.6°C 48.2°F9.0°C 64% 1.0 mph SW1.6 kmh SW 2.7 mph4.3 kmh 30.18 in1022.0 mb 0.00 in0.0 mm 0.00 in0.0 mm 0.00 in0.0 mm
12:40 PM 60.6°F15.9°C 48.2°F9.0°C 64% 1.7 mph SW2.7 kmh SW 4.0 mph6.4 kmh 30.15 in1021.0 mb 0.00 in0.0 mm 0.00 in0.0 mm 0.00 in0.0 mm
12:45 PM 60.8°F16.0°C 50.0°F10.0°C 65% 2.4 mph SSW3.9 kmh SSW 5.4 mph8.7 kmh 30.15 in1021.0 mb 0.00 in0.0 mm 0.00 in0.0 mm 0.00 in0.0 mm
12:50 PM 61.3°F16.3°C 50.0°F10.0°C 64% 2.1 mph SSW3.4 kmh SSW 5.4 mph8.7 kmh 30.15 in1021.0 mb 0.00 in0.0 mm 0.00 in0.0 mm 0.00 in0.0 mm
12:55 PM 61.3°F16.3°C 50.0°F10.0°C 64% 1.8 mph SSW2.9 kmh SSW 3.6 mph5.8 kmh 30.15 in1021.0 mb 0.00 in0.0 mm 0.00 in0.0 mm 0.00 in0.0 mm
01:00 PM 61.9°F16.6°C 50.0°F10.0°C 63% 2.2 mph SW3.5 kmh SW 3.8 mph6.1 kmh 30.15 in1021.0 mb 0.00 in0.0 mm 0.00 in0.0 mm 0.00 in0.0 mm
01:05 PM 62.1°F16.7°C 50.0°F10.0°C 64% 1.8 mph WSW2.9 kmh WSW 3.8 mph6.1 kmh 30.15 in1021.0 mb 0.00 in0.0 mm 0.00 in0.0 mm 0.00 in0.0 mm
01:10 PM 61.9°F16.6°C 50.0°F10.0°C 63% 1.5 mph SW2.4 kmh SW 3.8 mph6.1 kmh 30.15 in1021.0 mb 0.00 in0.0 mm 0.00 in0.0 mm 0.00 in0.0 mm
01:15 PM 61.7°F16.5°C 50.0°F10.0°C 63% 1.2 mph SSW1.9 kmh SSW 2.5 mph4.0 kmh 30.15 in1021.0 mb 0.00 in0.0 mm 0.00 in0.0 mm 0.00 in0.0 mm
01:20 PM 61.5°F16.4°C 48.2°F9.0°C 63% 1.4 mph SSW2.3 kmh SSW 2.9 mph4.7 kmh 30.15 in1021.0 mb 0.00 in0.0 mm 0.00 in0.0 mm 0.00 in0.0 mm
01:25 PM 61.7°F16.5°C 50.0°F10.0°C 63% 2.0 mph SW3.2 kmh SW 2.9 mph4.7 kmh 30.15 in1021.0 mb 0.00 in0.0 mm 0.00 in0.0 mm 0.00 in0.0 mm
01:30 PM 61.5°F16.4°C 48.2°F9.0°C 63% 2.1 mph SW3.4 kmh SW 4.0 mph6.4 kmh 30.15 in1021.0 mb 0.00 in0.0 mm 0.00 in0.0 mm 0.00 in0.0 mm
01:35 PM 61.3°F16.3°C 48.2°F9.0°C 63% 2.3 mph SW3.7 kmh SW 4.0 mph6.4 kmh 30.15 in1021.0 mb 0.00 in0.0 mm 0.00 in0.0 mm 0.00 in0.0 mm
01:45 PM 61.2°F16.2°C 48.2°F9.0°C 63% 2.5 mph SW4.0 kmh SW 4.0 mph6.4 kmh 30.12 in1020.0 mb 0.00 in0.0 mm 0.00 in0.0 mm 0.00 in0.0 mm
01:50 PM 61.2°F16.2°C 48.2°F9.0°C 63% 2.6 mph SW4.2 kmh SW 5.4 mph8.7 kmh 30.12 in1020.0 mb 0.00 in0.0 mm 0.00 in0.0 mm 0.00 in0.0 mm
01:55 PM 61.2°F16.2°C 48.2°F9.0°C 63% 2.0 mph SW3.2 kmh SW 5.4 mph8.7 kmh 30.12 in1020.0 mb 0.00 in0.0 mm 0.00 in0.0 mm 0.00 in0.0 mm
02:00 PM 61.3°F16.3°C 48.2°F9.0°C 63% 2.0 mph SW3.2 kmh SW 3.6 mph5.8 kmh 30.12 in1020.0 mb 0.00 in0.0 mm 0.00 in0.0 mm 0.00 in0.0 mm
02:05 PM 61.0°F16.1°C 48.2°F9.0°C 63% 2.7 mph SW4.3 kmh SW 5.6 mph9.0 kmh 30.12 in1020.0 mb 0.00 in0.0 mm 0.00 in0.0 mm 0.00 in0.0 mm
02:10 PM 60.8°F16.0°C 48.2°F9.0°C 63% 3.1 mph WSW5.0 kmh WSW 6.3 mph10.1 kmh 30.12 in1020.0 mb 0.00 in0.0 mm 0.00 in0.0 mm 0.00 in0.0 mm
02:15 PM 61.0°F16.1°C 48.2°F9.0°C 63% 2.8 mph WSW4.5 kmh WSW 6.3 mph10.1 kmh 30.12 in1020.0 mb 0.00 in0.0 mm 0.00 in0.0 mm 0.00 in0.0 mm
02:20 PM 61.0°F16.1°C 48.2°F9.0°C 62% 2.2 mph WSW3.5 kmh WSW 4.9 mph7.9 kmh 30.12 in1020.0 mb 0.00 in0.0 mm 0.00 in0.0 mm 0.00 in0.0 mm
02:25 PM 61.0°F16.1°C 48.2°F9.0°C 63% 1.6 mph SW2.6 kmh SW 3.4 mph5.5 kmh 30.12 in1020.0 mb 0.00 in0.0 mm 0.00 in0.0 mm 0.00 in0.0 mm
02:30 PM 61.0°F16.1°C 48.2°F9.0°C 64% 2.2 mph SW3.5 kmh SW 4.0 mph6.4 kmh 30.12 in1020.0 mb 0.00 in0.0 mm 0.00 in0.0 mm 0.00 in0.0 mm
02:35 PM 60.8°F16.0°C 48.2°F9.0°C 64% 2.8 mph SW4.5 kmh SW 4.0 mph6.4 kmh 30.12 in1020.0 mb 0.00 in0.0 mm 0.00 in0.0 mm 0.00 in0.0 mm
02:40 PM 61.0°F16.1°C 48.2°F9.0°C 63% 3.0 mph SW4.8 kmh SW 4.0 mph6.4 kmh 30.12 in1020.0 mb 0.00 in0.0 mm 0.00 in0.0 mm 0.00 in0.0 mm
02:45 PM 61.0°F16.1°C 48.2°F9.0°C 64% 3.0 mph SW4.8 kmh SW 4.9 mph7.9 kmh 30.12 in1020.0 mb 0.00 in0.0 mm 0.00 in0.0 mm 0.00 in0.0 mm
02:50 PM 60.8°F16.0°C 48.2°F9.0°C 63% 2.6 mph SW4.2 kmh SW 4.9 mph7.9 kmh 30.12 in1020.0 mb 0.00 in0.0 mm 0.00 in0.0 mm 0.00 in0.0 mm
02:55 PM 60.8°F16.0°C 48.2°F9.0°C 64% 2.7 mph SW4.3 kmh SW 4.9 mph7.9 kmh 30.12 in1020.0 mb 0.00 in0.0 mm 0.00 in0.0 mm 0.00 in0.0 mm
03:00 PM 60.8°F16.0°C 48.2°F9.0°C 64% 2.9 mph SW4.7 kmh SW 4.9 mph7.9 kmh 30.12 in1020.0 mb 0.00 in0.0 mm 0.00 in0.0 mm 0.00 in0.0 mm
03:05 PM 60.8°F16.0°C 48.2°F9.0°C 62% 2.5 mph WSW4.0 kmh WSW 4.3 mph6.9 kmh 30.12 in1020.0 mb 0.00 in0.0 mm 0.00 in0.0 mm 0.00 in0.0 mm
03:10 PM 61.0°F16.1°C 48.2°F9.0°C 63% 2.4 mph SW3.9 kmh SW 4.3 mph6.9 kmh 30.12 in1020.0 mb 0.00 in0.0 mm 0.00 in0.0 mm 0.00 in0.0 mm
03:15 PM 60.8°F16.0°C 48.2°F9.0°C 62% 2.3 mph SW3.7 kmh SW 4.0 mph6.4 kmh 30.12 in1020.0 mb 0.00 in0.0 mm 0.00 in0.0 mm 0.00 in0.0 mm
03:20 PM 60.8°F16.0°C 48.2°F9.0°C 62% 2.8 mph SW4.5 kmh SW 6.3 mph10.1 kmh 30.12 in1020.0 mb 0.00 in0.0 mm 0.00 in0.0 mm 0.00 in0.0 mm
03:25 PM 60.6°F15.9°C 48.2°F9.0°C 62% 2.9 mph SW4.7 kmh SW 6.3 mph10.1 kmh 30.12 in1020.0 mb 0.00 in0.0 mm 0.00 in0.0 mm 0.00 in0.0 mm
03:30 PM 60.8°F16.0°C 48.2°F9.0°C 63% 2.2 mph WSW3.5 kmh WSW 4.9 mph7.9 kmh 30.12 in1020.0 mb 0.00 in0.0 mm 0.00 in0.0 mm 0.00 in0.0 mm
03:35 PM 60.6°F15.9°C 48.2°F9.0°C 63% 2.5 mph SW4.0 kmh SW 4.0 mph6.4 kmh 30.12 in1020.0 mb 0.00 in0.0 mm 0.00 in0.0 mm 0.00 in0.0 mm
03:40 PM 60.6°F15.9°C 48.2°F9.0°C 62% 3.2 mph WSW5.1 kmh WSW 6.5 mph10.5 kmh 30.09 in1019.0 mb 0.00 in0.0 mm 0.00 in0.0 mm 0.00 in0.0 mm
03:45 PM 60.6°F15.9°C 48.2°F9.0°C 62% 2.5 mph WSW4.0 kmh WSW 6.5 mph10.5 kmh 30.09 in1019.0 mb 0.00 in0.0 mm 0.00 in0.0 mm 0.00 in0.0 mm
03:50 PM 60.3°F15.7°C 48.2°F9.0°C 62% 2.1 mph SW3.4 kmh SW 3.6 mph5.8 kmh 30.09 in1019.0 mb 0.00 in0.0 mm 0.00 in0.0 mm 0.00 in0.0 mm
03:55 PM 59.9°F15.5°C 48.2°F9.0°C 63% 2.5 mph SW4.0 kmh SW 3.6 mph5.8 kmh 30.09 in1019.0 mb 0.00 in0.0 mm 0.00 in0.0 mm 0.00 in0.0 mm
04:00 PM 59.9°F15.5°C 48.2°F9.0°C 63% 2.2 mph SW3.5 kmh SW 4.3 mph6.9 kmh 30.09 in1019.0 mb 0.00 in0.0 mm 0.00 in0.0 mm 0.00 in0.0 mm
04:05 PM 59.5°F15.3°C 48.2°F9.0°C 63% 1.9 mph SW3.1 kmh SW 4.3 mph6.9 kmh 30.09 in1019.0 mb 0.00 in0.0 mm 0.00 in0.0 mm 0.00 in0.0 mm
04:10 PM 59.5°F15.3°C 48.2°F9.0°C 64% 1.9 mph SW3.1 kmh SW 3.6 mph5.8 kmh 30.09 in1019.0 mb 0.00 in0.0 mm 0.00 in0.0 mm 0.00 in0.0 mm
04:15 PM 59.2°F15.1°C 46.4°F8.0°C 63% 1.8 mph SW2.9 kmh SW 3.6 mph5.8 kmh 30.09 in1019.0 mb 0.00 in0.0 mm 0.00 in0.0 mm 0.00 in0.0 mm
04:20 PM 59.0°F15.0°C 48.2°F9.0°C 64% 1.4 mph SW2.3 kmh SW 2.7 mph4.3 kmh 30.09 in1019.0 mb 0.00 in0.0 mm 0.00 in0.0 mm 0.00 in0.0 mm
04:25 PM 58.8°F14.9°C 46.4°F8.0°C 63% 1.4 mph SW2.3 kmh SW 2.7 mph4.3 kmh 30.09 in1019.0 mb 0.00 in0.0 mm 0.00 in0.0 mm 0.00 in0.0 mm
04:30 PM 58.5°F14.7°C 46.4°F8.0°C 64% 1.5 mph WSW2.4 kmh WSW 2.7 mph4.3 kmh 30.09 in1019.0 mb 0.00 in0.0 mm 0.00 in0.0 mm 0.00 in0.0 mm
04:35 PM 58.5°F14.7°C 46.4°F8.0°C 64% 1.8 mph WSW2.9 kmh WSW 3.4 mph5.5 kmh 30.09 in1019.0 mb 0.00 in0.0 mm 0.00 in0.0 mm 0.00 in0.0 mm
04:40 PM 58.1°F14.5°C 48.2°F9.0°C 65% 2.3 mph SW3.7 kmh SW 3.4 mph5.5 kmh 30.09 in1019.0 mb 0.00 in0.0 mm 0.00 in0.0 mm 0.00 in0.0 mm
04:45 PM 57.9°F14.4°C 46.4°F8.0°C 64% 2.1 mph SW3.4 kmh SW 3.1 mph5.0 kmh 30.09 in1019.0 mb 0.00 in0.0 mm 0.00 in0.0 mm 0.00 in0.0 mm
04:50 PM 57.7°F14.3°C 46.4°F8.0°C 65% 2.1 mph SW3.4 kmh SW 3.1 mph5.0 kmh 30.09 in1019.0 mb 0.00 in0.0 mm 0.00 in0.0 mm 0.00 in0.0 mm
04:55 PM 57.4°F14.1°C 46.4°F8.0°C 65% 2.0 mph WSW3.2 kmh WSW 3.1 mph5.0 kmh 30.09 in1019.0 mb 0.00 in0.0 mm 0.00 in0.0 mm 0.00 in0.0 mm
05:00 PM 56.7°F13.7°C 46.4°F8.0°C 65% 1.1 mph W1.8 kmh W 2.7 mph4.3 kmh 30.09 in1019.0 mb 0.00 in0.0 mm 0.00 in0.0 mm 0.00 in0.0 mm
05:05 PM 56.3°F13.5°C 46.4°F8.0°C 65% 0.7 mph WSW1.1 kmh WSW 2.2 mph3.5 kmh 30.09 in1019.0 mb 0.00 in0.0 mm 0.00 in0.0 mm 0.00 in0.0 mm
05:10 PM 56.3°F13.5°C 46.4°F8.0°C 65% 1.7 mph WSW2.7 kmh WSW 2.9 mph4.7 kmh 30.09 in1019.0 mb 0.00 in0.0 mm 0.00 in0.0 mm 0.00 in0.0 mm
05:15 PM 55.9°F13.3°C 44.6°F7.0°C 65% 1.9 mph WSW3.1 kmh WSW 2.9 mph4.7 kmh 30.09 in1019.0 mb 0.00 in0.0 mm 0.00 in0.0 mm 0.00 in0.0 mm
05:20 PM 55.4°F13.0°C 44.6°F7.0°C 66% 1.4 mph WSW2.3 kmh WSW 3.4 mph5.5 kmh 30.09 in1019.0 mb 0.00 in0.0 mm 0.00 in0.0 mm 0.00 in0.0 mm
05:25 PM 54.9°F12.7°C 44.6°F7.0°C 66% 1.4 mph W2.3 kmh W 3.4 mph5.5 kmh 30.09 in1019.0 mb 0.00 in0.0 mm 0.00 in0.0 mm 0.00 in0.0 mm
05:30 PM 54.7°F12.6°C 44.6°F7.0°C 67% 1.9 mph WSW3.1 kmh WSW 3.1 mph5.0 kmh 30.09 in1019.0 mb 0.00 in0.0 mm 0.00 in0.0 mm 0.00 in0.0 mm
05:35 PM 54.5°F12.5°C 44.6°F7.0°C 67% 2.4 mph WSW3.9 kmh WSW 3.1 mph5.0 kmh 30.09 in1019.0 mb 0.00 in0.0 mm 0.00 in0.0 mm 0.00 in0.0 mm
05:40 PM 54.1°F12.3°C 44.6°F7.0°C 67% 2.0 mph WSW3.2 kmh WSW 3.1 mph5.0 kmh 30.09 in1019.0 mb 0.00 in0.0 mm 0.00 in0.0 mm 0.00 in0.0 mm
05:45 PM 54.0°F12.2°C 42.8°F6.0°C 67% 1.9 mph WSW3.1 kmh WSW 4.9 mph7.9 kmh 30.09 in1019.0 mb 0.00 in0.0 mm 0.00 in0.0 mm 0.00 in0.0 mm
05:50 PM 53.6°F12.0°C 42.8°F6.0°C 67% 2.2 mph WSW3.5 kmh WSW 4.9 mph7.9 kmh 30.09 in1019.0 mb 0.00 in0.0 mm 0.00 in0.0 mm 0.00 in0.0 mm
05:55 PM 53.4°F11.9°C 42.8°F6.0°C 68% 3.0 mph WSW4.8 kmh WSW 4.3 mph6.9 kmh 30.09 in1019.0 mb 0.00 in0.0 mm 0.00 in0.0 mm 0.00 in0.0 mm
06:00 PM 52.9°F11.6°C 42.8°F6.0°C 68% 2.0 mph WSW3.2 kmh WSW 4.3 mph6.9 kmh 30.09 in1019.0 mb 0.00 in0.0 mm 0.00 in0.0 mm 0.00 in0.0 mm
06:05 PM 52.3°F11.3°C 42.8°F6.0°C 68% 0.8 mph SW1.3 kmh SW 3.6 mph5.8 kmh 30.09 in1019.0 mb 0.00 in0.0 mm 0.00 in0.0 mm 0.00 in0.0 mm
06:10 PM 52.0°F11.1°C 42.8°F6.0°C 68% 0.6 mph SSE1.0 kmh SSE 2.0 mph3.2 kmh 30.09 in1019.0 mb 0.00 in0.0 mm 0.00 in0.0 mm 0.00 in0.0 mm
06:15 PM 51.6°F10.9°C 42.8°F6.0°C 69% 0.3 mph SW0.5 kmh SW 2.0 mph3.2 kmh 30.09 in1019.0 mb 0.00 in0.0 mm 0.00 in0.0 mm 0.00 in0.0 mm
06:20 PM 51.1°F10.6°C 41.0°F5.0°C 68% 0.7 mph NE1.1 kmh NE 2.0 mph3.2 kmh 30.09 in1019.0 mb 0.00 in0.0 mm 0.00 in0.0 mm 0.00 in0.0 mm
06:25 PM 51.3°F10.7°C 41.0°F5.0°C 69% 2.6 mph N4.2 kmh N 5.8 mph9.3 kmh 30.09 in1019.0 mb 0.00 in0.0 mm 0.00 in0.0 mm 0.00 in0.0 mm
06:30 PM 51.4°F10.8°C 41.0°F5.0°C 69% 4.4 mph W7.1 kmh W 9.8 mph15.8 kmh 30.09 in1019.0 mb 0.00 in0.0 mm 0.00 in0.0 mm 0.00 in0.0 mm
06:35 PM 51.1°F10.6°C 41.0°F5.0°C 69% 3.9 mph WSW6.3 kmh WSW 9.8 mph15.8 kmh 30.09 in1019.0 mb 0.00 in0.0 mm 0.00 in0.0 mm 0.00 in0.0 mm
06:40 PM 50.7°F10.4°C 41.0°F5.0°C 69% 2.4 mph W3.9 kmh W 5.4 mph8.7 kmh 30.09 in1019.0 mb 0.00 in0.0 mm 0.00 in0.0 mm 0.00 in0.0 mm
06:45 PM 50.4°F10.2°C 41.0°F5.0°C 69% 1.8 mph WSW2.9 kmh WSW 4.0 mph6.4 kmh 30.09 in1019.0 mb 0.00 in0.0 mm 0.00 in0.0 mm 0.00 in0.0 mm
06:50 PM 50.0°F10.0°C 41.0°F5.0°C 69% 1.2 mph WSW1.9 kmh WSW 4.0 mph6.4 kmh 30.09 in1019.0 mb 0.00 in0.0 mm 0.00 in0.0 mm 0.00 in0.0 mm
06:55 PM 49.8°F9.9°C 41.0°F5.0°C 69% 1.2 mph WSW1.9 kmh WSW 2.5 mph4.0 kmh 30.07 in1018.3 mb 0.00 in0.0 mm 0.00 in0.0 mm 0.00 in0.0 mm
07:00 PM 49.6°F9.8°C 41.0°F5.0°C 70% 1.6 mph WSW2.6 kmh WSW 2.7 mph4.3 kmh 30.07 in1018.3 mb 0.00 in0.0 mm 0.00 in0.0 mm 0.00 in0.0 mm
07:05 PM 49.1°F9.5°C 41.0°F5.0°C 70% 1.1 mph WSW1.8 kmh WSW 2.7 mph4.3 kmh 30.07 in1018.3 mb 0.00 in0.0 mm 0.00 in0.0 mm 0.00 in0.0 mm
07:10 PM 48.4°F9.1°C 39.2°F4.0°C 69% 0.5 mph NNE0.8 kmh NNE 1.3 mph2.1 kmh 30.07 in1018.3 mb 0.00 in0.0 mm 0.00 in0.0 mm 0.00 in0.0 mm
07:15 PM 47.8°F8.8°C 39.2°F4.0°C 70% 0.3 mph N0.5 kmh N 1.1 mph1.8 kmh 30.07 in1018.3 mb 0.00 in0.0 mm 0.00 in0.0 mm 0.00 in0.0 mm
07:20 PM 47.7°F8.7°C 39.2°F4.0°C 70% 0.9 mph NNW1.4 kmh NNW 2.5 mph4.0 kmh 30.07 in1018.3 mb 0.00 in0.0 mm 0.00 in0.0 mm 0.00 in0.0 mm
07:25 PM 47.1°F8.4°C 37.4°F3.0°C 70% 1.3 mph NW2.1 kmh NW 2.5 mph4.0 kmh 30.07 in1018.3 mb 0.00 in0.0 mm 0.00 in0.0 mm 0.00 in0.0 mm
07:30 PM 47.3°F8.5°C 39.2°F4.0°C 71% 1.3 mph W2.1 kmh W 2.5 mph4.0 kmh 30.07 in1018.3 mb 0.00 in0.0 mm 0.00 in0.0 mm 0.00 in0.0 mm
07:35 PM 47.7°F8.7°C 39.2°F4.0°C 71% 1.3 mph WSW2.1 kmh WSW 2.5 mph4.0 kmh 30.07 in1018.3 mb 0.00 in0.0 mm 0.00 in0.0 mm 0.00 in0.0 mm
07:40 PM 47.5°F8.6°C 39.2°F4.0°C 71% 0.8 mph SW1.3 kmh SW 2.2 mph3.5 kmh 30.07 in1018.3 mb 0.00 in0.0 mm 0.00 in0.0 mm 0.00 in0.0 mm
07:45 PM 46.9°F8.3°C 37.4°F3.0°C 70% 0.3 mph ESE0.5 kmh ESE 2.0 mph3.2 kmh 30.07 in1018.3 mb 0.00 in0.0 mm 0.00 in0.0 mm 0.00 in0.0 mm
07:50 PM 46.2°F7.9°C 37.4°F3.0°C 70% 0.1 mph SE0.2 kmh SE 1.1 mph1.8 kmh 30.07 in1018.3 mb 0.00 in0.0 mm 0.00 in0.0 mm 0.00 in0.0 mm
07:55 PM 45.7°F7.6°C 37.4°F3.0°C 70% Calm Calm -- 30.07 in1018.3 mb 0.00 in0.0 mm 0.00 in0.0 mm 0.00 in0.0 mm
08:00 PM 45.9°F7.7°C 37.4°F3.0°C 71% 0.1 mph SSW0.2 kmh SSW 0.9 mph1.4 kmh 30.07 in1018.3 mb 0.00 in0.0 mm 0.00 in0.0 mm 0.00 in0.0 mm
08:05 PM 45.3°F7.4°C 37.4°F3.0°C 71% 0.2 mph S0.3 kmh S 1.1 mph1.8 kmh 30.07 in1018.3 mb 0.00 in0.0 mm 0.00 in0.0 mm 0.00 in0.0 mm
08:10 PM 44.8°F7.1°C 35.6°F2.0°C 71% 0.4 mph ENE0.6 kmh ENE 1.3 mph2.1 kmh 30.07 in1018.3 mb 0.00 in0.0 mm 0.00 in0.0 mm 0.00 in0.0 mm
08:15 PM 44.4°F6.9°C 35.6°F2.0°C 71% 0.5 mph NE0.8 kmh NE 1.3 mph2.1 kmh 30.07 in1018.3 mb 0.00 in0.0 mm 0.00 in0.0 mm 0.00 in0.0 mm
08:20 PM 44.2°F6.8°C 35.6°F2.0°C 71% 0.4 mph NE0.6 kmh NE 1.1 mph1.8 kmh 30.07 in1018.3 mb 0.00 in0.0 mm 0.00 in0.0 mm 0.00 in0.0 mm
08:25 PM 43.9°F6.6°C 35.6°F2.0°C 71% 0.2 mph NE0.3 kmh NE 1.1 mph1.8 kmh 30.07 in1018.3 mb 0.00 in0.0 mm 0.00 in0.0 mm 0.00 in0.0 mm
08:30 PM 43.5°F6.4°C 35.6°F2.0°C 72% 0.3 mph W0.5 kmh W 1.1 mph1.8 kmh 30.07 in1018.3 mb 0.00 in0.0 mm 0.00 in0.0 mm 0.00 in0.0 mm
08:35 PM 43.3°F6.3°C 35.6°F2.0°C 72% 0.5 mph W0.8 kmh W 1.1 mph1.8 kmh 30.07 in1018.3 mb 0.00 in0.0 mm 0.00 in0.0 mm 0.00 in0.0 mm
08:40 PM 43.2°F6.2°C 35.6°F2.0°C 72% 0.3 mph W0.5 kmh W 0.9 mph1.4 kmh 30.07 in1018.3 mb 0.00 in0.0 mm 0.00 in0.0 mm 0.00 in0.0 mm
08:45 PM 42.8°F6.0°C 35.6°F2.0°C 72% 0.3 mph NW0.5 kmh NW 0.9 mph1.4 kmh 30.07 in1018.3 mb 0.00 in0.0 mm 0.00 in0.0 mm 0.00 in0.0 mm
08:50 PM 42.4°F5.8°C 35.6°F2.0°C 73% 0.6 mph WNW1.0 kmh WNW 1.3 mph2.1 kmh 30.07 in1018.3 mb 0.00 in0.0 mm 0.00 in0.0 mm 0.00 in0.0 mm
08:55 PM 42.4°F5.8°C 35.6°F2.0°C 73% 1.2 mph WNW1.9 kmh WNW 2.5 mph4.0 kmh 30.07 in1018.3 mb 0.00 in0.0 mm 0.00 in0.0 mm 0.00 in0.0 mm
09:00 PM 42.3°F5.7°C 33.8°F1.0°C 73% 1.4 mph WNW2.3 kmh WNW 2.5 mph4.0 kmh 30.07 in1018.3 mb 0.00 in0.0 mm 0.00 in0.0 mm 0.00 in0.0 mm
09:05 PM 42.8°F6.0°C 35.6°F2.0°C 74% 1.8 mph W2.9 kmh W 3.4 mph5.5 kmh 30.07 in1018.3 mb 0.00 in0.0 mm 0.00 in0.0 mm 0.00 in0.0 mm
09:10 PM 43.3°F6.3°C 35.6°F2.0°C 74% 2.5 mph WSW4.0 kmh WSW 3.4 mph5.5 kmh 30.07 in1018.3 mb 0.00 in0.0 mm 0.00 in0.0 mm 0.00 in0.0 mm
09:15 PM 42.1°F5.6°C 33.8°F1.0°C 73% 1.5 mph WSW2.4 kmh WSW 3.4 mph5.5 kmh 30.07 in1018.3 mb 0.00 in0.0 mm 0.00 in0.0 mm 0.00 in0.0 mm
09:20 PM 41.7°F5.4°C 33.8°F1.0°C 73% 0.3 mph NW0.5 kmh NW 1.3 mph2.1 kmh 30.07 in1018.3 mb 0.00 in0.0 mm 0.00 in0.0 mm 0.00 in0.0 mm
09:25 PM 41.4°F5.2°C 33.8°F1.0°C 73% 0.3 mph NW0.5 kmh NW 1.3 mph2.1 kmh 30.07 in1018.3 mb 0.00 in0.0 mm 0.00 in0.0 mm 0.00 in0.0 mm
09:30 PM 41.2°F5.1°C 33.8°F1.0°C 74% 0.4 mph NNW0.6 kmh NNW 1.3 mph2.1 kmh 30.07 in1018.3 mb 0.00 in0.0 mm 0.00 in0.0 mm 0.00 in0.0 mm
09:35 PM 40.8°F4.9°C 33.8°F1.0°C 74% 0.3 mph NNW0.5 kmh NNW 1.3 mph2.1 kmh 30.07 in1018.3 mb 0.00 in0.0 mm 0.00 in0.0 mm 0.00 in0.0 mm
09:40 PM 40.6°F4.8°C 33.8°F1.0°C 74% 0.1 mph N0.2 kmh N 0.9 mph1.4 kmh 30.07 in1018.3 mb 0.00 in0.0 mm 0.00 in0.0 mm 0.00 in0.0 mm
09:45 PM 40.6°F4.8°C 33.8°F1.0°C 74% 0.3 mph W0.5 kmh W 2.2 mph3.5 kmh 30.07 in1018.3 mb 0.00 in0.0 mm 0.00 in0.0 mm 0.00 in0.0 mm
09:50 PM 40.6°F4.8°C 33.8°F1.0°C 74% 0.5 mph WNW0.8 kmh WNW 2.2 mph3.5 kmh 30.07 in1018.3 mb 0.00 in0.0 mm 0.00 in0.0 mm 0.00 in0.0 mm
09:55 PM 39.9°F4.4°C 32.0°F0.0°C 74% 0.4 mph NNW0.6 kmh NNW 2.0 mph3.2 kmh 30.07 in1018.3 mb 0.00 in0.0 mm 0.00 in0.0 mm 0.00 in0.0 mm
10:00 PM 39.6°F4.2°C 32.0°F0.0°C 74% 0.4 mph NNE0.6 kmh NNE 2.0 mph3.2 kmh 30.07 in1018.3 mb 0.00 in0.0 mm 0.00 in0.0 mm 0.00 in0.0 mm
10:05 PM 39.4°F4.1°C 32.0°F0.0°C 74% 0.6 mph NE1.0 kmh NE 2.5 mph4.0 kmh 30.07 in1018.3 mb 0.00 in0.0 mm 0.00 in0.0 mm 0.00 in0.0 mm
10:10 PM 39.4°F4.1°C 32.0°F0.0°C 74% 0.4 mph NE0.6 kmh NE 2.5 mph4.0 kmh 30.04 in1017.3 mb 0.00 in0.0 mm 0.00 in0.0 mm 0.00 in0.0 mm
10:15 PM 39.2°F4.0°C 32.0°F0.0°C 74% 0.2 mph NE0.3 kmh NE 1.3 mph2.1 kmh 30.04 in1017.3 mb 0.00 in0.0 mm 0.00 in0.0 mm 0.00 in0.0 mm
10:20 PM 38.8°F3.8°C 32.0°F0.0°C 74% 0.9 mph NE1.4 kmh NE 2.9 mph4.7 kmh 30.04 in1017.3 mb 0.00 in0.0 mm 0.00 in0.0 mm 0.00 in0.0 mm
10:25 PM 38.7°F3.7°C 32.0°F0.0°C 74% 0.9 mph NE1.4 kmh NE 2.9 mph4.7 kmh 30.04 in1017.3 mb 0.00 in0.0 mm 0.00 in0.0 mm 0.00 in0.0 mm
10:30 PM 38.5°F3.6°C 32.0°F0.0°C 74% 0.2 mph NE0.3 kmh NE 0.9 mph1.4 kmh 30.04 in1017.3 mb 0.00 in0.0 mm 0.00 in0.0 mm 0.00 in0.0 mm
10:35 PM 38.5°F3.6°C 32.0°F0.0°C 74% 0.8 mph NE1.3 kmh NE 3.1 mph5.0 kmh 30.04 in1017.3 mb 0.00 in0.0 mm 0.00 in0.0 mm 0.00 in0.0 mm
10:40 PM 38.7°F3.7°C 32.0°F0.0°C 75% 1.5 mph NE2.4 kmh NE 3.1 mph5.0 kmh 30.04 in1017.3 mb 0.00 in0.0 mm 0.00 in0.0 mm 0.00 in0.0 mm
10:45 PM 38.8°F3.8°C 32.0°F0.0°C 75% 1.8 mph NE2.9 kmh NE 3.1 mph5.0 kmh 30.04 in1017.3 mb 0.00 in0.0 mm 0.00 in0.0 mm 0.00 in0.0 mm
10:50 PM 38.7°F3.7°C 32.0°F0.0°C 75% 1.4 mph NE2.3 kmh NE 3.1 mph5.0 kmh 30.04 in1017.3 mb 0.00 in0.0 mm 0.00 in0.0 mm 0.00 in0.0 mm
10:55 PM 38.3°F3.5°C 32.0°F0.0°C 75% 0.8 mph NE1.3 kmh NE 2.0 mph3.2 kmh 30.04 in1017.3 mb 0.00 in0.0 mm 0.00 in0.0 mm 0.00 in0.0 mm
11:00 PM 38.3°F3.5°C 32.0°F0.0°C 75% 0.8 mph NE1.3 kmh NE 2.0 mph3.2 kmh 30.04 in1017.3 mb 0.00 in0.0 mm 0.00 in0.0 mm 0.00 in0.0 mm
11:05 PM 37.9°F3.3°C 32.0°F0.0°C 75% 1.0 mph NE1.6 kmh NE 2.9 mph4.7 kmh 30.04 in1017.3 mb 0.00 in0.0 mm 0.00 in0.0 mm 0.00 in0.0 mm
11:10 PM 38.1°F3.4°C 32.0°F0.0°C 75% 1.7 mph NE2.7 kmh NE 2.9 mph4.7 kmh 30.04 in1017.3 mb 0.00 in0.0 mm 0.00 in0.0 mm 0.00 in0.0 mm
11:15 PM 37.9°F3.3°C 32.0°F0.0°C 75% 2.2 mph NE3.5 kmh NE 2.9 mph4.7 kmh 30.04 in1017.3 mb 0.00 in0.0 mm 0.00 in0.0 mm 0.00 in0.0 mm
11:20 PM 37.8°F3.2°C 32.0°F0.0°C 75% 1.8 mph NE2.9 kmh NE 3.4 mph5.5 kmh 30.04 in1017.3 mb 0.00 in0.0 mm 0.00 in0.0 mm 0.00 in0.0 mm
11:25 PM 37.8°F3.2°C 32.0°F0.0°C 76% 2.0 mph NE3.2 kmh NE 3.4 mph5.5 kmh 30.04 in1017.3 mb 0.00 in0.0 mm 0.00 in0.0 mm 0.00 in0.0 mm
11:30 PM 37.6°F3.1°C 30.2°F-1.0°C 76% 2.0 mph NE3.2 kmh NE 3.1 mph5.0 kmh 30.04 in1017.3 mb 0.00 in0.0 mm 0.00 in0.0 mm 0.00 in0.0 mm
11:35 PM 37.4°F3.0°C 30.2°F-1.0°C 76% 1.3 mph NE2.1 kmh NE 2.5 mph4.0 kmh 30.04 in1017.3 mb 0.00 in0.0 mm 0.00 in0.0 mm 0.00 in0.0 mm
11:40 PM 37.4°F3.0°C 30.2°F-1.0°C 76% 0.8 mph NE1.3 kmh NE 2.5 mph4.0 kmh 30.04 in1017.3 mb 0.00 in0.0 mm 0.00 in0.0 mm 0.00 in0.0 mm
11:45 PM 37.2°F2.9°C 30.2°F-1.0°C 76% 0.6 mph E1.0 kmh E 1.6 mph2.6 kmh 30.04 in1017.3 mb 0.00 in0.0 mm 0.00 in0.0 mm 0.00 in0.0 mm
11:50 PM 36.9°F2.7°C 30.2°F-1.0°C 76% 1.4 mph E2.3 kmh E 3.1 mph5.0 kmh 30.04 in1017.3 mb 0.00 in0.0 mm 0.00 in0.0 mm 0.00 in0.0 mm
11:55 PM 36.5°F2.5°C 30.2°F-1.0°C 75% 2.3 mph E3.7 kmh E 3.8 mph6.1 kmh 30.04 in1017.3 mb 0.00 in0.0 mm 0.00 in0.0 mm 0.00 in0.0 mm